Zanesville, Indiana
Current Conditions -  °F | °C
As of 8:54 AM on Sunday 23 Nov 2014 (Local Time) from KFWA Reporting Station
Overcast Overcast  
Wind Chill: 43°   Ceiling: 10000
Heat Index: 48°   Visibility: 10mi
Dew Point: 42°   Wind: 13mph
Humidity: 80%   Direction: 170°S
Pressure: 29.9"   Gusts: NA
Location:  40.92°N, 85.28°W
Report Text: KFWA 231354Z 17011KT 10SM SCT075 OVC100 09/06 A2990 RMK AO2 SLP128 T00890056
Loading
Personal Weather Stations






























Interactive Weather Map New forecast layout! Learn more

10-Day Weather Forecast

Advertisements
Track Severe Weather on mobile